sensor_id;sensor_type;location;lat;lon;timestamp;temperature;humidity
6357;DHT22;3211;53.452;-2.264;2023-05-10T00:00:20;11.40;99.90
6357;DHT22;3211;53.452;-2.264;2023-05-10T00:03:04;11.30;99.90
6357;DHT22;3211;53.452;-2.264;2023-05-10T00:05:46;11.30;99.90
6357;DHT22;3211;53.452;-2.264;2023-05-10T00:08:28;11.30;99.90
6357;DHT22;3211;53.452;-2.264;2023-05-10T00:11:10;11.20;99.90
6357;DHT22;3211;53.452;-2.264;2023-05-10T00:13:52;11.20;99.90
6357;DHT22;3211;53.452;-2.264;2023-05-10T00:16:34;11.20;99.90
6357;DHT22;3211;53.452;-2.264;2023-05-10T00:19:17;11.20;99.90
6357;DHT22;3211;53.452;-2.264;2023-05-10T00:21:59;11.10;99.90
6357;DHT22;3211;53.452;-2.264;2023-05-10T00:24:41;11.10;99.90
6357;DHT22;3211;53.452;-2.264;2023-05-10T00:27:23;11.10;99.90
6357;DHT22;3211;53.452;-2.264;2023-05-10T00:30:06;11.10;99.90
6357;DHT22;3211;53.452;-2.264;2023-05-10T00:32:49;11.10;99.90
6357;DHT22;3211;53.452;-2.264;2023-05-10T00:35:33;11.10;99.90
6357;DHT22;3211;53.452;-2.264;2023-05-10T00:38:16;11.00;99.90
6357;DHT22;3211;53.452;-2.264;2023-05-10T00:40:58;11.00;99.90
6357;DHT22;3211;53.452;-2.264;2023-05-10T00:43:40;11.00;99.90
6357;DHT22;3211;53.452;-2.264;2023-05-10T00:46:21;10.90;99.90
6357;DHT22;3211;53.452;-2.264;2023-05-10T00:49:04;10.90;99.90
6357;DHT22;3211;53.452;-2.264;2023-05-10T00:51:47;10.90;99.90
6357;DHT22;3211;53.452;-2.264;2023-05-10T00:54:30;10.90;99.90
6357;DHT22;3211;53.452;-2.264;2023-05-10T00:57:12;10.90;99.90
6357;DHT22;3211;53.452;-2.264;2023-05-10T00:59:54;10.90;99.90
6357;DHT22;3211;53.452;-2.264;2023-05-10T01:02:36;10.80;99.90
6357;DHT22;3211;53.452;-2.264;2023-05-10T01:05:18;10.80;99.90
6357;DHT22;3211;53.452;-2.264;2023-05-10T01:08:01;10.80;99.90
6357;DHT22;3211;53.452;-2.264;2023-05-10T01:10:44;10.80;99.90
6357;DHT22;3211;53.452;-2.264;2023-05-10T01:13:31;10.70;99.90
6357;DHT22;3211;53.452;-2.264;2023-05-10T01:16:15;10.70;99.90
6357;DHT22;3211;53.452;-2.264;2023-05-10T01:18:57;10.80;99.90
6357;DHT22;3211;53.452;-2.264;2023-05-10T01:21:51;10.70;99.90
6357;DHT22;3211;53.452;-2.264;2023-05-10T01:25:07;10.70;99.90
6357;DHT22;3211;53.452;-2.264;2023-05-10T01:28:13;10.70;99.90
6357;DHT22;3211;53.452;-2.264;2023-05-10T01:31:08;10.60;99.90
6357;DHT22;3211;53.452;-2.264;2023-05-10T01:33:56;10.60;99.90
6357;DHT22;3211;53.452;-2.264;2023-05-10T01:36:43;10.60;99.90
6357;DHT22;3211;53.452;-2.264;2023-05-10T01:39:36;10.60;99.90
6357;DHT22;3211;53.452;-2.264;2023-05-10T01:42:21;10.60;99.90
6357;DHT22;3211;53.452;-2.264;2023-05-10T01:45:16;10.60;99.90
6357;DHT22;3211;53.452;-2.264;2023-05-10T01:48:05;10.50;99.90
6357;DHT22;3211;53.452;-2.264;2023-05-10T01:50:50;10.50;99.90
6357;DHT22;3211;53.452;-2.264;2023-05-10T01:53:33;10.50;99.90
6357;DHT22;3211;53.452;-2.264;2023-05-10T01:56:20;10.50;99.90
6357;DHT22;3211;53.452;-2.264;2023-05-10T01:59:07;10.40;99.90
6357;DHT22;3211;53.452;-2.264;2023-05-10T02:01:51;10.40;99.90
6357;DHT22;3211;53.452;-2.264;2023-05-10T02:04:35;10.40;99.90
6357;DHT22;3211;53.452;-2.264;2023-05-10T02:07:21;10.40;99.90
6357;DHT22;3211;53.452;-2.264;2023-05-10T02:10:04;10.30;99.90
6357;DHT22;3211;53.452;-2.264;2023-05-10T02:12:48;10.40;99.90
6357;DHT22;3211;53.452;-2.264;2023-05-10T02:15:31;10.40;99.90
6357;DHT22;3211;53.452;-2.264;2023-05-10T02:18:14;10.30;99.90
6357;DHT22;3211;53.452;-2.264;2023-05-10T02:20:57;10.30;99.90
6357;DHT22;3211;53.452;-2.264;2023-05-10T02:23:43;10.30;99.90
6357;DHT22;3211;53.452;-2.264;2023-05-10T02:26:26;10.30;99.90
6357;DHT22;3211;53.452;-2.264;2023-05-10T02:29:09;10.20;99.90
6357;DHT22;3211;53.452;-2.264;2023-05-10T02:31:54;10.20;99.90
6357;DHT22;3211;53.452;-2.264;2023-05-10T02:34:37;10.20;99.90
6357;DHT22;3211;53.452;-2.264;2023-05-10T02:37:20;10.20;99.90
6357;DHT22;3211;53.452;-2.264;2023-05-10T02:40:05;10.20;99.90
6357;DHT22;3211;53.452;-2.264;2023-05-10T02:42:48;10.10;99.90
6357;DHT22;3211;53.452;-2.264;2023-05-10T02:45:32;10.10;99.90
6357;DHT22;3211;53.452;-2.264;2023-05-10T02:48:16;10.10;99.90
6357;DHT22;3211;53.452;-2.264;2023-05-10T02:51:03;10.10;99.90
6357;DHT22;3211;53.452;-2.264;2023-05-10T02:53:47;10.10;99.90
6357;DHT22;3211;53.452;-2.264;2023-05-10T02:56:35;10.10;99.90
6357;DHT22;3211;53.452;-2.264;2023-05-10T02:59:17;9.90;99.90
6357;DHT22;3211;53.452;-2.264;2023-05-10T03:01:59;10.00;99.90
6357;DHT22;3211;53.452;-2.264;2023-05-10T03:04:42;9.90;99.90
6357;DHT22;3211;53.452;-2.264;2023-05-10T03:07:24;9.90;99.90
6357;DHT22;3211;53.452;-2.264;2023-05-10T03:10:07;9.90;99.90
6357;DHT22;3211;53.452;-2.264;2023-05-10T03:13:04;9.90;99.90
6357;DHT22;3211;53.452;-2.264;2023-05-10T03:15:52;10.00;99.90
6357;DHT22;3211;53.452;-2.264;2023-05-10T03:18:42;10.00;99.90
6357;DHT22;3211;53.452;-2.264;2023-05-10T03:21:29;9.90;99.90
6357;DHT22;3211;53.452;-2.264;2023-05-10T03:24:12;9.90;99.90
6357;DHT22;3211;53.452;-2.264;2023-05-10T03:26:56;10.00;99.90
6357;DHT22;3211;53.452;-2.264;2023-05-10T03:29:42;9.90;99.90
6357;DHT22;3211;53.452;-2.264;2023-05-10T03:32:25;10.00;99.90
6357;DHT22;3211;53.452;-2.264;2023-05-10T03:35:07;10.00;99.90
6357;DHT22;3211;53.452;-2.264;2023-05-10T03:37:50;10.00;99.90
6357;DHT22;3211;53.452;-2.264;2023-05-10T03:40:31;9.90;99.90
6357;DHT22;3211;53.452;-2.264;2023-05-10T03:43:13;9.90;99.90
6357;DHT22;3211;53.452;-2.264;2023-05-10T03:45:57;10.00;99.90
6357;DHT22;3211;53.452;-2.264;2023-05-10T03:48:39;10.00;99.90
6357;DHT22;3211;53.452;-2.264;2023-05-10T03:51:21;10.00;99.90
6357;DHT22;3211;53.452;-2.264;2023-05-10T03:54:03;10.00;99.90
6357;DHT22;3211;53.452;-2.264;2023-05-10T03:56:45;10.10;99.90
6357;DHT22;3211;53.452;-2.264;2023-05-10T03:59:28;10.10;99.90
6357;DHT22;3211;53.452;-2.264;2023-05-10T04:02:11;10.00;99.90
6357;DHT22;3211;53.452;-2.264;2023-05-10T04:04:53;10.00;99.90
6357;DHT22;3211;53.452;-2.264;2023-05-10T04:07:35;10.00;99.90
6357;DHT22;3211;53.452;-2.264;2023-05-10T04:10:17;10.10;99.90
6357;DHT22;3211;53.452;-2.264;2023-05-10T04:12:59;10.00;99.90
6357;DHT22;3211;53.452;-2.264;2023-05-10T04:15:41;10.00;99.90
6357;DHT22;3211;53.452;-2.264;2023-05-10T04:18:25;10.00;99.90
6357;DHT22;3211;53.452;-2.264;2023-05-10T04:21:11;10.00;99.90
6357;DHT22;3211;53.452;-2.264;2023-05-10T04:23:54;10.00;99.90
6357;DHT22;3211;53.452;-2.264;2023-05-10T04:26:35;10.00;99.90
6357;DHT22;3211;53.452;-2.264;2023-05-10T04:29:17;10.10;99.90
6357;DHT22;3211;53.452;-2.264;2023-05-10T04:31:59;10.10;99.90
6357;DHT22;3211;53.452;-2.264;2023-05-10T04:34:43;9.90;99.90
6357;DHT22;3211;53.452;-2.264;2023-05-10T04:37:25;10.00;99.90
6357;DHT22;3211;53.452;-2.264;2023-05-10T04:40:08;10.10;99.90
6357;DHT22;3211;53.452;-2.264;2023-05-10T04:42:50;10.20;99.90
6357;DHT22;3211;53.452;-2.264;2023-05-10T04:45:32;10.20;99.90
6357;DHT22;3211;53.452;-2.264;2023-05-10T04:48:13;10.30;99.90
6357;DHT22;3211;53.452;-2.264;2023-05-10T04:50:57;10.40;99.90
6357;DHT22;3211;53.452;-2.264;2023-05-10T04:53:39;10.40;99.90
6357;DHT22;3211;53.452;-2.264;2023-05-10T04:56:21;10.40;99.90
6357;DHT22;3211;53.452;-2.264;2023-05-10T04:59:03;10.40;99.90
6357;DHT22;3211;53.452;-2.264;2023-05-10T05:01:45;10.40;99.90
6357;DHT22;3211;53.452;-2.264;2023-05-10T05:04:27;10.50;99.90
6357;DHT22;3211;53.452;-2.264;2023-05-10T05:07:10;10.40;99.90
6357;DHT22;3211;53.452;-2.264;2023-05-10T05:09:52;10.40;99.90
6357;DHT22;3211;53.452;-2.264;2023-05-10T05:12:34;10.30;99.90
6357;DHT22;3211;53.452;-2.264;2023-05-10T05:15:16;10.30;99.90
6357;DHT22;3211;53.452;-2.264;2023-05-10T05:17:58;10.30;99.90
6357;DHT22;3211;53.452;-2.264;2023-05-10T05:20:41;10.30;99.90
6357;DHT22;3211;53.452;-2.264;2023-05-10T05:23:24;10.20;99.90
6357;DHT22;3211;53.452;-2.264;2023-05-10T05:26:06;10.20;99.90
6357;DHT22;3211;53.452;-2.264;2023-05-10T05:28:48;10.30;99.90
6357;DHT22;3211;53.452;-2.264;2023-05-10T05:31:33;10.30;99.90
6357;DHT22;3211;53.452;-2.264;2023-05-10T05:34:15;10.30;99.90
6357;DHT22;3211;53.452;-2.264;2023-05-10T05:36:57;10.30;99.90
6357;DHT22;3211;53.452;-2.264;2023-05-10T05:39:40;10.40;99.90
6357;DHT22;3211;53.452;-2.264;2023-05-10T05:42:22;10.40;99.90
6357;DHT22;3211;53.452;-2.264;2023-05-10T05:45:05;10.50;99.90
6357;DHT22;3211;53.452;-2.264;2023-05-10T05:47:49;10.50;99.90
6357;DHT22;3211;53.452;-2.264;2023-05-10T05:50:31;10.40;99.90
6357;DHT22;3211;53.452;-2.264;2023-05-10T05:53:13;10.50;99.90
6357;DHT22;3211;53.452;-2.264;2023-05-10T05:55:57;10.60;99.90
6357;DHT22;3211;53.452;-2.264;2023-05-10T05:58:39;10.60;99.90
6357;DHT22;3211;53.452;-2.264;2023-05-10T06:01:21;10.70;99.90
6357;DHT22;3211;53.452;-2.264;2023-05-10T06:04:03;10.80;99.90
6357;DHT22;3211;53.452;-2.264;2023-05-10T06:06:45;10.90;99.90
6357;DHT22;3211;53.452;-2.264;2023-05-10T06:09:27;11.00;99.90
6357;DHT22;3211;53.452;-2.264;2023-05-10T06:12:10;11.20;99.90
6357;DHT22;3211;53.452;-2.264;2023-05-10T06:14:53;11.20;99.90
6357;DHT22;3211;53.452;-2.264;2023-05-10T06:17:35;11.40;99.90
6357;DHT22;3211;53.452;-2.264;2023-05-10T06:20:17;11.40;99.90
6357;DHT22;3211;53.452;-2.264;2023-05-10T06:22:59;11.50;99.90
6357;DHT22;3211;53.452;-2.264;2023-05-10T06:25:41;11.30;99.90
6357;DHT22;3211;53.452;-2.264;2023-05-10T06:28:24;11.30;99.90
6357;DHT22;3211;53.452;-2.264;2023-05-10T06:31:06;11.30;99.90
6357;DHT22;3211;53.452;-2.264;2023-05-10T06:33:48;11.30;99.90
6357;DHT22;3211;53.452;-2.264;2023-05-10T06:36:30;11.40;99.90
6357;DHT22;3211;53.452;-2.264;2023-05-10T06:39:12;11.50;99.90
6357;DHT22;3211;53.452;-2.264;2023-05-10T06:41:54;11.40;99.90
6357;DHT22;3211;53.452;-2.264;2023-05-10T06:44:37;11.50;99.90
6357;DHT22;3211;53.452;-2.264;2023-05-10T06:47:19;11.40;99.90
6357;DHT22;3211;53.452;-2.264;2023-05-10T06:50:02;11.50;99.90
6357;DHT22;3211;53.452;-2.264;2023-05-10T06:52:44;11.70;99.90
6357;DHT22;3211;53.452;-2.264;2023-05-10T06:55:26;11.80;99.90
6357;DHT22;3211;53.452;-2.264;2023-05-10T06:58:08;11.80;99.90
6357;DHT22;3211;53.452;-2.264;2023-05-10T07:00:52;11.90;99.90
6357;DHT22;3211;53.452;-2.264;2023-05-10T07:03:34;11.80;99.90
6357;DHT22;3211;53.452;-2.264;2023-05-10T07:06:16;11.80;99.90
6357;DHT22;3211;53.452;-2.264;2023-05-10T07:08:58;11.90;99.90
6357;DHT22;3211;53.452;-2.264;2023-05-10T07:11:39;12.20;99.90
6357;DHT22;3211;53.452;-2.264;2023-05-10T07:14:21;12.30;99.90
6357;DHT22;3211;53.452;-2.264;2023-05-10T07:17:05;12.50;99.90
6357;DHT22;3211;53.452;-2.264;2023-05-10T07:19:48;12.60;99.90
6357;DHT22;3211;53.452;-2.264;2023-05-10T07:22:30;12.60;99.90
6357;DHT22;3211;53.452;-2.264;2023-05-10T07:25:12;12.70;99.90
6357;DHT22;3211;53.452;-2.264;2023-05-10T07:27:54;12.80;99.90
6357;DHT22;3211;53.452;-2.264;2023-05-10T07:30:36;12.80;99.90
6357;DHT22;3211;53.452;-2.264;2023-05-10T07:33:19;12.80;99.90
6357;DHT22;3211;53.452;-2.264;2023-05-10T07:36:01;12.90;99.90
6357;DHT22;3211;53.452;-2.264;2023-05-10T07:38:43;12.90;99.90
6357;DHT22;3211;53.452;-2.264;2023-05-10T07:41:25;13.00;99.90
6357;DHT22;3211;53.452;-2.264;2023-05-10T07:44:07;13.00;99.90
6357;DHT22;3211;53.452;-2.264;2023-05-10T07:46:49;13.00;99.90
6357;DHT22;3211;53.452;-2.264;2023-05-10T07:49:33;13.10;99.90
6357;DHT22;3211;53.452;-2.264;2023-05-10T07:52:15;13.20;99.90
6357;DHT22;3211;53.452;-2.264;2023-05-10T07:54:57;13.20;99.90
6357;DHT22;3211;53.452;-2.264;2023-05-10T07:57:38;13.30;99.90
6357;DHT22;3211;53.452;-2.264;2023-05-10T08:00:20;13.60;99.90
6357;DHT22;3211;53.452;-2.264;2023-05-10T08:03:03;13.60;99.90
6357;DHT22;3211;53.452;-2.264;2023-05-10T08:05:46;13.70;99.90
6357;DHT22;3211;53.452;-2.264;2023-05-10T08:08:28;13.70;99.90
6357;DHT22;3211;53.452;-2.264;2023-05-10T08:11:10;13.70;99.90
6357;DHT22;3211;53.452;-2.264;2023-05-10T08:13:52;14.00;99.90
6357;DHT22;3211;53.452;-2.264;2023-05-10T08:16:34;14.00;99.90
6357;DHT22;3211;53.452;-2.264;2023-05-10T08:19:16;13.90;99.90
6357;DHT22;3211;53.452;-2.264;2023-05-10T08:22:03;13.90;99.90
6357;DHT22;3211;53.452;-2.264;2023-05-10T08:24:45;14.00;99.90
6357;DHT22;3211;53.452;-2.264;2023-05-10T08:27:27;14.00;99.90
6357;DHT22;3211;53.452;-2.264;2023-05-10T08:30:09;14.10;99.90
6357;DHT22;3211;53.452;-2.264;2023-05-10T08:32:52;14.20;99.90
6357;DHT22;3211;53.452;-2.264;2023-05-10T08:35:34;14.00;99.90
6357;DHT22;3211;53.452;-2.264;2023-05-10T08:38:17;14.00;99.90
6357;DHT22;3211;53.452;-2.264;2023-05-10T08:41:01;14.20;99.90
6357;DHT22;3211;53.452;-2.264;2023-05-10T08:43:44;14.20;99.90
6357;DHT22;3211;53.452;-2.264;2023-05-10T08:46:27;14.10;99.90
6357;DHT22;3211;53.452;-2.264;2023-05-10T08:49:13;14.20;99.90
6357;DHT22;3211;53.452;-2.264;2023-05-10T08:51:57;14.10;99.90
6357;DHT22;3211;53.452;-2.264;2023-05-10T08:54:43;14.10;99.90
6357;DHT22;3211;53.452;-2.264;2023-05-10T08:57:25;14.00;99.90
6357;DHT22;3211;53.452;-2.264;2023-05-10T09:00:08;14.10;99.90
6357;DHT22;3211;53.452;-2.264;2023-05-10T09:02:50;14.20;99.90
6357;DHT22;3211;53.452;-2.264;2023-05-10T09:05:32;14.10;99.90
6357;DHT22;3211;53.452;-2.264;2023-05-10T09:08:15;14.00;99.90
6357;DHT22;3211;53.452;-2.264;2023-05-10T09:11:00;14.10;99.90
6357;DHT22;3211;53.452;-2.264;2023-05-10T09:13:43;14.10;99.90
6357;DHT22;3211;53.452;-2.264;2023-05-10T09:16:26;14.10;99.90
6357;DHT22;3211;53.452;-2.264;2023-05-10T09:19:08;14.20;99.90
6357;DHT22;3211;53.452;-2.264;2023-05-10T09:21:50;14.10;99.90
6357;DHT22;3211;53.452;-2.264;2023-05-10T09:24:32;14.10;99.90
6357;DHT22;3211;53.452;-2.264;2023-05-10T09:27:15;14.10;99.90
6357;DHT22;3211;53.452;-2.264;2023-05-10T09:29:57;14.20;99.90
6357;DHT22;3211;53.452;-2.264;2023-05-10T09:32:40;14.00;99.90
6357;DHT22;3211;53.452;-2.264;2023-05-10T09:35:23;14.10;99.90
6357;DHT22;3211;53.452;-2.264;2023-05-10T09:38:05;14.20;99.90
6357;DHT22;3211;53.452;-2.264;2023-05-10T09:40:52;14.50;99.90
6357;DHT22;3211;53.452;-2.264;2023-05-10T09:43:40;14.40;99.90
6357;DHT22;3211;53.452;-2.264;2023-05-10T09:46:22;14.40;99.90
6357;DHT22;3211;53.452;-2.264;2023-05-10T09:49:05;14.30;99.90
6357;DHT22;3211;53.452;-2.264;2023-05-10T09:51:47;14.00;99.90
6357;DHT22;3211;53.452;-2.264;2023-05-10T09:54:45;13.50;99.90
6357;DHT22;3211;53.452;-2.264;2023-05-10T09:57:33;13.60;99.90
6357;DHT22;3211;53.452;-2.264;2023-05-10T10:00:18;13.50;99.90
6357;DHT22;3211;53.452;-2.264;2023-05-10T10:03:01;13.70;99.90
6357;DHT22;3211;53.452;-2.264;2023-05-10T10:05:44;13.70;99.90
6357;DHT22;3211;53.452;-2.264;2023-05-10T10:08:26;13.70;99.90
6357;DHT22;3211;53.452;-2.264;2023-05-10T10:11:09;13.60;99.90
6357;DHT22;3211;53.452;-2.264;2023-05-10T10:13:51;13.70;99.90
6357;DHT22;3211;53.452;-2.264;2023-05-10T10:16:35;13.90;99.90
6357;DHT22;3211;53.452;-2.264;2023-05-10T10:19:18;14.00;99.90
6357;DHT22;3211;53.452;-2.264;2023-05-10T10:22:00;14.00;99.90
6357;DHT22;3211;53.452;-2.264;2023-05-10T10:24:43;14.20;99.90
6357;DHT22;3211;53.452;-2.264;2023-05-10T10:27:31;14.30;99.90
6357;DHT22;3211;53.452;-2.264;2023-05-10T10:30:28;14.20;99.90
6357;DHT22;3211;53.452;-2.264;2023-05-10T10:33:33;14.20;99.90
6357;DHT22;3211;53.452;-2.264;2023-05-10T10:36:19;14.20;99.90
6357;DHT22;3211;53.452;-2.264;2023-05-10T10:39:09;14.30;99.90
6357;DHT22;3211;53.452;-2.264;2023-05-10T10:41:54;14.30;99.90
6357;DHT22;3211;53.452;-2.264;2023-05-10T10:44:37;14.20;99.90
6357;DHT22;3211;53.452;-2.264;2023-05-10T10:47:23;14.20;99.90
6357;DHT22;3211;53.452;-2.264;2023-05-10T10:50:08;14.20;99.90
6357;DHT22;3211;53.452;-2.264;2023-05-10T10:52:53;14.50;99.90
6357;DHT22;3211;53.452;-2.264;2023-05-10T10:55:35;14.60;99.90
6357;DHT22;3211;53.452;-2.264;2023-05-10T10:58:30;14.60;99.90
6357;DHT22;3211;53.452;-2.264;2023-05-10T11:01:14;14.70;99.90
6357;DHT22;3211;53.452;-2.264;2023-05-10T11:04:18;14.50;99.90
6357;DHT22;3211;53.452;-2.264;2023-05-10T11:09:54;14.20;99.90
6357;DHT22;3211;53.452;-2.264;2023-05-10T11:12:51;13.80;99.90
6357;DHT22;3211;53.452;-2.264;2023-05-10T11:15:34;13.80;99.90
6357;DHT22;3211;53.452;-2.264;2023-05-10T11:18:17;13.80;99.90
6357;DHT22;3211;53.452;-2.264;2023-05-10T11:21:01;13.90;99.90
6357;DHT22;3211;53.452;-2.264;2023-05-10T11:23:50;13.80;99.90
6357;DHT22;3211;53.452;-2.264;2023-05-10T11:26:35;13.80;99.90
6357;DHT22;3211;53.452;-2.264;2023-05-10T11:29:17;13.50;99.90
6357;DHT22;3211;53.452;-2.264;2023-05-10T11:32:00;13.40;99.90
6357;DHT22;3211;53.452;-2.264;2023-05-10T11:34:42;12.90;99.90
6357;DHT22;3211;53.452;-2.264;2023-05-10T11:37:29;13.00;99.90
6357;DHT22;3211;53.452;-2.264;2023-05-10T11:40:14;12.90;99.90
6357;DHT22;3211;53.452;-2.264;2023-05-10T11:42:58;13.20;99.90
6357;DHT22;3211;53.452;-2.264;2023-05-10T11:45:41;13.10;99.90
6357;DHT22;3211;53.452;-2.264;2023-05-10T11:48:23;12.90;99.90
6357;DHT22;3211;53.452;-2.264;2023-05-10T11:51:06;12.60;99.90
6357;DHT22;3211;53.452;-2.264;2023-05-10T11:53:49;12.50;99.90
6357;DHT22;3211;53.452;-2.264;2023-05-10T11:56:32;12.40;99.90
6357;DHT22;3211;53.452;-2.264;2023-05-10T11:59:16;12.50;99.90
6357;DHT22;3211;53.452;-2.264;2023-05-10T12:01:58;12.40;99.90
6357;DHT22;3211;53.452;-2.264;2023-05-10T12:04:40;12.50;99.90
6357;DHT22;3211;53.452;-2.264;2023-05-10T12:07:22;12.50;99.90
6357;DHT22;3211;53.452;-2.264;2023-05-10T12:10:08;12.70;99.90
6357;DHT22;3211;53.452;-2.264;2023-05-10T12:12:52;12.80;99.90
6357;DHT22;3211;53.452;-2.264;2023-05-10T12:15:35;12.80;99.90
6357;DHT22;3211;53.452;-2.264;2023-05-10T12:18:23;12.90;99.90
6357;DHT22;3211;53.452;-2.264;2023-05-10T12:21:05;13.00;99.90
6357;DHT22;3211;53.452;-2.264;2023-05-10T12:23:48;13.50;99.90
6357;DHT22;3211;53.452;-2.264;2023-05-10T12:26:31;13.50;99.90
6357;DHT22;3211;53.452;-2.264;2023-05-10T12:29:14;13.70;99.90
6357;DHT22;3211;53.452;-2.264;2023-05-10T12:31:59;14.10;99.90
6357;DHT22;3211;53.452;-2.264;2023-05-10T12:34:41;14.30;99.90
6357;DHT22;3211;53.452;-2.264;2023-05-10T12:37:25;14.50;99.90
6357;DHT22;3211;53.452;-2.264;2023-05-10T12:40:10;14.90;99.90
6357;DHT22;3211;53.452;-2.264;2023-05-10T12:42:52;15.10;99.90
6357;DHT22;3211;53.452;-2.264;2023-05-10T12:48:08;14.30;99.90
6357;DHT22;3211;53.452;-2.264;2023-05-10T12:50:50;14.30;99.90
6357;DHT22;3211;53.452;-2.264;2023-05-10T12:53:32;14.10;99.90
6357;DHT22;3211;53.452;-2.264;2023-05-10T12:56:14;13.50;99.90
6357;DHT22;3211;53.452;-2.264;2023-05-10T12:58:56;13.30;99.90
6357;DHT22;3211;53.452;-2.264;2023-05-10T13:01:38;13.30;99.90
6357;DHT22;3211;53.452;-2.264;2023-05-10T13:04:21;13.00;99.90
6357;DHT22;3211;53.452;-2.264;2023-05-10T13:07:03;12.90;99.90
6357;DHT22;3211;53.452;-2.264;2023-05-10T13:09:45;12.80;99.90
6357;DHT22;3211;53.452;-2.264;2023-05-10T13:12:27;13.00;99.90
6357;DHT22;3211;53.452;-2.264;2023-05-10T13:15:10;13.50;99.90
6357;DHT22;3211;53.452;-2.264;2023-05-10T13:17:53;13.50;99.90
6357;DHT22;3211;53.452;-2.264;2023-05-10T13:20:36;13.80;99.90
6357;DHT22;3211;53.452;-2.264;2023-05-10T13:23:18;13.60;99.90
6357;DHT22;3211;53.452;-2.264;2023-05-10T13:26:00;13.50;99.90
6357;DHT22;3211;53.452;-2.264;2023-05-10T13:28:43;13.40;99.90
6357;DHT22;3211;53.452;-2.264;2023-05-10T13:31:26;13.60;99.90
6357;DHT22;3211;53.452;-2.264;2023-05-10T13:34:08;13.50;99.90
6357;DHT22;3211;53.452;-2.264;2023-05-10T13:36:52;13.50;99.90
6357;DHT22;3211;53.452;-2.264;2023-05-10T13:39:34;13.40;99.90
6357;DHT22;3211;53.452;-2.264;2023-05-10T13:42:18;13.50;99.90
6357;DHT22;3211;53.452;-2.264;2023-05-10T13:45:00;13.90;99.90
6357;DHT22;3211;53.452;-2.264;2023-05-10T13:47:42;13.80;99.90
6357;DHT22;3211;53.452;-2.264;2023-05-10T13:50:24;13.50;99.90
6357;DHT22;3211;53.452;-2.264;2023-05-10T13:53:07;13.40;99.90
6357;DHT22;3211;53.452;-2.264;2023-05-10T13:55:49;13.60;99.90
6357;DHT22;3211;53.452;-2.264;2023-05-10T13:58:31;13.50;99.90
6357;DHT22;3211;53.452;-2.264;2023-05-10T14:01:13;13.40;99.90
6357;DHT22;3211;53.452;-2.264;2023-05-10T14:03:55;13.20;99.90
6357;DHT22;3211;53.452;-2.264;2023-05-10T14:06:37;13.20;99.90
6357;DHT22;3211;53.452;-2.264;2023-05-10T14:09:20;13.30;99.90
6357;DHT22;3211;53.452;-2.264;2023-05-10T14:12:03;13.30;99.90
6357;DHT22;3211;53.452;-2.264;2023-05-10T14:14:44;13.40;99.90
6357;DHT22;3211;53.452;-2.264;2023-05-10T14:17:26;13.40;99.90
6357;DHT22;3211;53.452;-2.264;2023-05-10T14:20:10;13.60;99.90
6357;DHT22;3211;53.452;-2.264;2023-05-10T14:22:52;13.60;99.90
6357;DHT22;3211;53.452;-2.264;2023-05-10T14:25:35;13.50;99.90
6357;DHT22;3211;53.452;-2.264;2023-05-10T14:28:18;13.60;99.90
6357;DHT22;3211;53.452;-2.264;2023-05-10T14:31:01;13.70;99.90
6357;DHT22;3211;53.452;-2.264;2023-05-10T14:33:43;13.90;99.90
6357;DHT22;3211;53.452;-2.264;2023-05-10T14:36:25;14.20;99.90
6357;DHT22;3211;53.452;-2.264;2023-05-10T14:39:07;14.10;99.90
6357;DHT22;3211;53.452;-2.264;2023-05-10T14:41:51;14.10;99.90
6357;DHT22;3211;53.452;-2.264;2023-05-10T14:44:33;14.10;99.90
6357;DHT22;3211;53.452;-2.264;2023-05-10T14:47:15;14.10;99.90
6357;DHT22;3211;53.452;-2.264;2023-05-10T14:49:57;14.10;99.90
6357;DHT22;3211;53.452;-2.264;2023-05-10T14:52:39;14.10;99.90
6357;DHT22;3211;53.452;-2.264;2023-05-10T14:55:21;14.00;99.90
6357;DHT22;3211;53.452;-2.264;2023-05-10T14:58:05;14.10;99.90
6357;DHT22;3211;53.452;-2.264;2023-05-10T15:00:47;14.00;99.90
6357;DHT22;3211;53.452;-2.264;2023-05-10T15:03:29;14.00;99.90
6357;DHT22;3211;53.452;-2.264;2023-05-10T15:06:11;14.30;99.90
6357;DHT22;3211;53.452;-2.264;2023-05-10T15:08:53;14.40;99.90
6357;DHT22;3211;53.452;-2.264;2023-05-10T15:11:35;14.30;99.90
6357;DHT22;3211;53.452;-2.264;2023-05-10T15:14:18;14.30;99.90
6357;DHT22;3211;53.452;-2.264;2023-05-10T15:17:00;14.10;99.90
6357;DHT22;3211;53.452;-2.264;2023-05-10T15:19:42;14.20;99.90
6357;DHT22;3211;53.452;-2.264;2023-05-10T15:22:24;14.50;99.90
6357;DHT22;3211;53.452;-2.264;2023-05-10T15:25:08;14.80;99.90
6357;DHT22;3211;53.452;-2.264;2023-05-10T15:27:51;15.10;99.90
6357;DHT22;3211;53.452;-2.264;2023-05-10T15:30:34;15.40;99.90
6357;DHT22;3211;53.452;-2.264;2023-05-10T15:33:16;15.30;99.90
6357;DHT22;3211;53.452;-2.264;2023-05-10T15:35:58;14.90;99.90
6357;DHT22;3211;53.452;-2.264;2023-05-10T15:38:40;14.50;99.90
6357;DHT22;3211;53.452;-2.264;2023-05-10T15:41:22;14.40;99.90
6357;DHT22;3211;53.452;-2.264;2023-05-10T15:44:05;14.50;99.90
6357;DHT22;3211;53.452;-2.264;2023-05-10T15:46:48;14.60;99.90
6357;DHT22;3211;53.452;-2.264;2023-05-10T15:49:30;14.60;99.90
6357;DHT22;3211;53.452;-2.264;2023-05-10T15:52:12;14.40;99.90
6357;DHT22;3211;53.452;-2.264;2023-05-10T15:54:55;14.50;99.90
6357;DHT22;3211;53.452;-2.264;2023-05-10T15:57:37;14.50;99.90
6357;DHT22;3211;53.452;-2.264;2023-05-10T16:00:19;14.50;99.90
6357;DHT22;3211;53.452;-2.264;2023-05-10T16:03:03;15.30;99.90
6357;DHT22;3211;53.452;-2.264;2023-05-10T16:05:45;15.10;99.90
6357;DHT22;3211;53.452;-2.264;2023-05-10T16:08:27;14.70;99.90
6357;DHT22;3211;53.452;-2.264;2023-05-10T16:11:10;14.60;99.90
6357;DHT22;3211;53.452;-2.264;2023-05-10T16:13:52;14.80;99.90
6357;DHT22;3211;53.452;-2.264;2023-05-10T16:16:35;14.80;99.90
6357;DHT22;3211;53.452;-2.264;2023-05-10T16:19:18;14.80;99.90
6357;DHT22;3211;53.452;-2.264;2023-05-10T16:22:00;14.90;99.90
6357;DHT22;3211;53.452;-2.264;2023-05-10T16:24:42;15.70;99.90
6357;DHT22;3211;53.452;-2.264;2023-05-10T16:27:24;15.70;99.90
6357;DHT22;3211;53.452;-2.264;2023-05-10T16:30:08;15.30;99.90
6357;DHT22;3211;53.452;-2.264;2023-05-10T16:32:50;14.90;99.90
6357;DHT22;3211;53.452;-2.264;2023-05-10T16:35:34;14.80;99.90
6357;DHT22;3211;53.452;-2.264;2023-05-10T16:38:16;14.90;99.90
6357;DHT22;3211;53.452;-2.264;2023-05-10T16:41:00;14.90;99.90
6357;DHT22;3211;53.452;-2.264;2023-05-10T16:43:43;15.10;99.90
6357;DHT22;3211;53.452;-2.264;2023-05-10T16:46:25;15.10;99.90
6357;DHT22;3211;53.452;-2.264;2023-05-10T16:49:07;15.10;99.90
6357;DHT22;3211;53.452;-2.264;2023-05-10T16:51:50;15.10;99.90
6357;DHT22;3211;53.452;-2.264;2023-05-10T16:54:32;15.00;99.90
6357;DHT22;3211;53.452;-2.264;2023-05-10T16:57:14;14.90;99.90
6357;DHT22;3211;53.452;-2.264;2023-05-10T16:59:56;15.00;99.90
6357;DHT22;3211;53.452;-2.264;2023-05-10T17:02:38;15.00;99.90
6357;DHT22;3211;53.452;-2.264;2023-05-10T17:05:21;15.00;99.90
6357;DHT22;3211;53.452;-2.264;2023-05-10T17:08:04;15.00;99.90
6357;DHT22;3211;53.452;-2.264;2023-05-10T17:10:47;14.90;99.90
6357;DHT22;3211;53.452;-2.264;2023-05-10T17:13:29;14.80;99.90
6357;DHT22;3211;53.452;-2.264;2023-05-10T17:16:11;14.80;99.90
6357;DHT22;3211;53.452;-2.264;2023-05-10T17:18:53;14.90;99.90
6357;DHT22;3211;53.452;-2.264;2023-05-10T17:21:35;14.80;99.90
6357;DHT22;3211;53.452;-2.264;2023-05-10T17:24:18;14.80;99.90
6357;DHT22;3211;53.452;-2.264;2023-05-10T17:27:00;14.70;99.90
6357;DHT22;3211;53.452;-2.264;2023-05-10T17:29:43;14.70;99.90
6357;DHT22;3211;53.452;-2.264;2023-05-10T17:32:25;14.60;99.90
6357;DHT22;3211;53.452;-2.264;2023-05-10T17:35:07;14.20;99.90